createdAt,value
2022-11-12T00:01:25.246Z,18.80
2022-11-12T00:04:11.113Z,19.23
2022-11-12T00:06:57.174Z,18.13
2022-11-12T00:09:43.260Z,18.23
2022-11-12T00:12:30.813Z,18.10
2022-11-12T00:15:17.156Z,18.20
2022-11-12T00:18:03.031Z,17.63
2022-11-12T00:20:49.412Z,18.37
2022-11-12T00:23:35.263Z,17.90
2022-11-12T00:26:21.397Z,18.97
2022-11-12T00:29:08.794Z,17.13
2022-11-12T00:31:54.695Z,18.67
2022-11-12T00:34:40.691Z,18.23
2022-11-12T00:37:26.864Z,18.37
2022-11-12T00:40:13.275Z,18.73
2022-11-12T00:42:59.378Z,18.03
2022-11-12T00:45:46.563Z,19.00
2022-11-12T00:48:32.772Z,19.00
2022-11-12T00:51:19.056Z,18.33
2022-11-12T00:54:05.573Z,18.50
2022-11-12T00:56:51.487Z,18.67
2022-11-12T00:59:37.328Z,19.60
2022-11-12T01:02:24.657Z,19.83
2022-11-12T01:05:11.198Z,19.40
2022-11-12T01:07:57.251Z,18.93
2022-11-12T01:10:43.216Z,19.60
2022-11-12T01:13:29.414Z,20.17
2022-11-12T01:16:17.258Z,19.73
2022-11-12T01:19:06.408Z,19.50
2022-11-12T01:21:52.594Z,19.37
2022-11-12T01:24:38.707Z,18.80
2022-11-12T01:27:24.876Z,19.10
2022-11-12T01:30:12.023Z,18.80
2022-11-12T01:32:58.343Z,19.30
2022-11-12T01:35:45.536Z,20.53
2022-11-12T01:38:34.929Z,19.90
2022-11-12T01:41:25.337Z,20.60
2022-11-12T01:44:14.917Z,20.60
2022-11-12T01:47:05.830Z,20.10
2022-11-12T01:49:57.165Z,20.63
2022-11-12T01:52:47.232Z,20.37
2022-11-12T01:55:36.406Z,20.27
2022-11-12T01:58:26.044Z,20.23
2022-11-12T02:01:12.202Z,20.03
2022-11-12T02:03:58.310Z,20.93
2022-11-12T02:06:45.553Z,20.43
2022-11-12T02:09:33.304Z,20.27
2022-11-12T02:12:40.744Z,20.27
2022-11-12T02:15:27.439Z,19.83
2022-11-12T02:18:13.295Z,25.60
2022-11-12T02:21:04.771Z,21.07
2022-11-12T02:24:00.100Z,20.63
2022-11-12T02:26:51.842Z,19.00
2022-11-12T02:29:46.057Z,18.77
2022-11-12T02:32:32.225Z,18.93
2022-11-12T02:35:18.437Z,19.33
2022-11-12T02:38:05.367Z,19.60
2022-11-12T02:40:52.683Z,18.67
2022-11-12T02:43:39.241Z,18.43
2022-11-12T02:46:25.383Z,19.10
2022-11-12T02:49:11.571Z,19.17
2022-11-12T02:51:57.864Z,19.07
2022-11-12T02:54:43.783Z,19.33
2022-11-12T02:57:31.273Z,19.80
2022-11-12T03:00:18.199Z,19.53
2022-11-12T03:03:04.308Z,19.27
2022-11-12T03:05:56.374Z,20.00
2022-11-12T03:08:42.133Z,20.23
2022-11-12T03:11:28.100Z,20.17
2022-11-12T03:14:15.634Z,19.70
2022-11-12T03:17:01.879Z,19.50
2022-11-12T03:19:47.855Z,19.60
2022-11-12T03:22:33.930Z,20.43
2022-11-12T03:25:20.097Z,19.30
2022-11-12T03:28:07.607Z,20.07
2022-11-12T03:30:58.362Z,19.60
2022-11-12T03:33:44.680Z,19.23
2022-11-12T03:36:30.600Z,19.00
2022-11-12T03:39:16.912Z,19.13
2022-11-12T03:42:03.339Z,18.13
2022-11-12T03:44:49.644Z,18.47
2022-11-12T03:47:37.115Z,18.07
2022-11-12T03:50:24.675Z,18.90
2022-11-12T03:53:11.681Z,18.57
2022-11-12T03:55:57.984Z,18.33
2022-11-12T03:58:44.003Z,18.73
2022-11-12T04:01:30.324Z,18.57
2022-11-12T04:04:17.779Z,18.53
2022-11-12T04:07:21.324Z,18.07
2022-11-12T04:10:07.768Z,18.00
2022-11-12T04:13:11.063Z,17.20
2022-11-12T04:16:17.309Z,17.73
2022-11-12T04:19:22.075Z,17.20
2022-11-12T04:22:11.236Z,16.77
2022-11-12T04:25:15.008Z,17.47
2022-11-12T04:28:01.207Z,17.97
2022-11-12T04:30:46.180Z,18.33
2022-11-12T04:33:32.178Z,18.03
2022-11-12T04:36:18.252Z,18.60
2022-11-12T04:39:05.938Z,18.67
2022-11-12T04:42:09.631Z,18.47
2022-11-12T04:45:05.175Z,18.10
2022-11-12T04:47:51.049Z,17.43
2022-11-12T04:50:37.455Z,16.77
2022-11-12T04:53:23.591Z,16.83
2022-11-12T04:56:10.828Z,17.10
2022-11-12T04:58:56.912Z,17.17
2022-11-12T05:01:42.948Z,17.23
2022-11-12T05:04:29.186Z,17.30
2022-11-12T05:07:15.720Z,17.83
2022-11-12T05:10:01.771Z,17.40
2022-11-12T05:12:49.207Z,17.00
2022-11-12T05:15:35.419Z,17.73
2022-11-12T05:18:21.432Z,18.57
2022-11-12T05:21:21.498Z,18.13
2022-11-12T05:24:08.429Z,18.63
2022-11-12T05:26:55.029Z,18.93
2022-11-12T05:29:42.799Z,18.20
2022-11-12T05:32:28.923Z,19.20
2022-11-12T05:35:14.955Z,18.10
2022-11-12T05:38:01.268Z,19.03
2022-11-12T05:40:47.351Z,19.90
2022-11-12T05:43:33.677Z,19.07
2022-11-12T05:46:21.363Z,19.10
2022-11-12T05:49:07.301Z,18.73
2022-11-12T05:51:53.471Z,19.33
2022-11-12T05:54:39.518Z,20.20
2022-11-12T05:57:27.803Z,19.33
2022-11-12T06:00:14.660Z,19.37
2022-11-12T06:03:02.320Z,19.03
2022-11-12T06:05:48.315Z,19.47
2022-11-12T06:08:34.515Z,19.60
2022-11-12T06:11:20.704Z,18.20
2022-11-12T06:14:09.980Z,18.90
2022-11-12T06:16:56.176Z,17.37
2022-11-12T06:19:43.757Z,18.00
2022-11-12T06:22:29.939Z,18.50
2022-11-12T06:25:16.350Z,18.63
2022-11-12T06:28:02.289Z,18.43
2022-11-12T06:30:48.069Z,19.73
2022-11-12T06:33:34.211Z,19.30
2022-11-12T06:36:21.943Z,18.93
2022-11-12T06:39:08.187Z,17.60
2022-11-12T06:41:54.791Z,19.53
2022-11-12T06:44:41.137Z,18.57
2022-11-12T06:47:26.996Z,17.90
2022-11-12T06:50:13.356Z,18.33
2022-11-12T06:53:01.015Z,19.97
2022-11-12T06:55:46.888Z,20.60
2022-11-12T06:58:33.493Z,21.63
2022-11-12T07:01:20.131Z,23.07
2022-11-12T07:04:06.353Z,23.40
2022-11-12T07:06:52.643Z,23.30
2022-11-12T07:09:40.132Z,23.13
2022-11-12T07:12:26.256Z,23.00
2022-11-12T07:15:12.213Z,23.13
2022-11-12T07:17:58.344Z,22.90
2022-11-12T07:20:44.519Z,23.47
2022-11-12T07:23:32.604Z,23.73
2022-11-12T07:26:22.301Z,23.67
2022-11-12T07:29:08.394Z,23.73
2022-11-12T07:31:54.407Z,24.20
2022-11-12T07:34:40.556Z,23.83
2022-11-12T07:37:26.814Z,23.53
2022-11-12T07:40:13.136Z,24.33
2022-11-12T07:43:01.164Z,24.33
2022-11-12T07:45:47.023Z,25.87
2022-11-12T07:48:36.319Z,24.60
2022-11-12T07:51:23.708Z,24.80
2022-11-12T07:54:09.860Z,25.63
2022-11-12T07:56:55.868Z,24.80
2022-11-12T07:59:46.096Z,24.47
2022-11-12T08:02:32.459Z,24.77
2022-11-12T08:05:21.317Z,24.37
2022-11-12T08:08:07.844Z,22.83
2022-11-12T08:10:56.384Z,24.17
2022-11-12T08:13:42.636Z,24.63
2022-11-12T08:16:29.753Z,24.90
2022-11-12T08:19:15.904Z,24.73
2022-11-12T08:22:02.048Z,25.20
2022-11-12T08:24:47.903Z,25.70
2022-11-12T08:27:34.242Z,25.37
2022-11-12T08:30:20.244Z,25.20
2022-11-12T08:33:07.660Z,24.77
2022-11-12T08:35:53.536Z,23.27
2022-11-12T08:38:40.158Z,24.87
2022-11-12T08:41:26.148Z,23.83
2022-11-12T08:44:12.157Z,25.20
2022-11-12T08:46:59.217Z,24.87
2022-11-12T08:49:48.151Z,24.07
2022-11-12T08:52:34.287Z,25.10
2022-11-12T08:55:20.480Z,25.27
2022-11-12T08:58:07.116Z,26.30
2022-11-12T09:00:53.768Z,24.73
2022-11-12T09:03:40.034Z,24.97
2022-11-12T09:06:27.308Z,24.77
2022-11-12T09:09:13.492Z,25.27
2022-11-12T09:12:02.211Z,25.17
2022-11-12T09:14:56.126Z,25.70
2022-11-12T09:17:42.376Z,25.80
2022-11-12T09:20:29.900Z,25.93
2022-11-12T09:23:20.838Z,26.10
2022-11-12T09:26:07.731Z,25.43
2022-11-12T09:28:54.831Z,26.07
2022-11-12T09:31:40.952Z,25.20
2022-11-12T09:34:26.960Z,25.93
2022-11-12T09:37:13.045Z,24.73
2022-11-12T09:40:00.488Z,25.00
2022-11-12T09:42:48.068Z,25.57
2022-11-12T09:45:34.319Z,25.97
2022-11-12T09:48:24.192Z,25.13
2022-11-12T09:51:14.209Z,26.40
2022-11-12T09:54:01.511Z,26.53
2022-11-12T09:56:49.748Z,27.37
2022-11-12T09:59:39.508Z,26.87
2022-11-12T10:02:29.512Z,26.10
2022-11-12T10:05:24.767Z,25.37
2022-11-12T10:08:29.302Z,25.47
2022-11-12T10:11:31.047Z,23.33
2022-11-12T10:14:26.459Z,23.37
2022-11-12T10:17:16.237Z,23.33
2022-11-12T10:20:10.312Z,22.73
2022-11-12T10:23:09.963Z,22.30
2022-11-12T10:25:59.399Z,21.20
2022-11-12T10:28:48.007Z,21.77
2022-11-12T10:31:35.251Z,21.30
2022-11-12T10:34:22.950Z,21.10
2022-11-12T10:37:13.896Z,21.73
2022-11-12T10:39:59.991Z,21.37
2022-11-12T10:42:57.624Z,22.63
2022-11-12T10:45:44.472Z,22.10
2022-11-12T10:48:34.223Z,21.50
2022-11-12T10:51:23.843Z,21.80
2022-11-12T10:54:30.236Z,21.73
2022-11-12T10:57:21.094Z,22.37
2022-11-12T11:00:19.030Z,22.50
2022-11-12T11:03:08.244Z,21.77
2022-11-12T11:05:58.218Z,20.90
2022-11-12T11:08:45.682Z,21.00
2022-11-12T11:11:32.659Z,22.07
2022-11-12T11:14:27.262Z,21.63
2022-11-12T11:17:17.347Z,21.67
2022-11-12T11:20:04.700Z,21.10
2022-11-12T11:22:57.298Z,21.60
2022-11-12T11:25:43.924Z,21.70
2022-11-12T11:28:34.460Z,21.93
2022-11-12T11:31:28.097Z,22.00
2022-11-12T11:34:24.192Z,22.13
2022-11-12T11:37:23.193Z,22.40
2022-11-12T11:40:17.996Z,22.00
2022-11-12T11:43:16.603Z,22.17
2022-11-12T11:46:08.546Z,22.13
2022-11-12T11:49:07.226Z,21.20
2022-11-12T11:51:57.127Z,21.73
2022-11-12T11:54:54.667Z,21.50
2022-11-12T11:57:49.892Z,21.17
2022-11-12T12:00:43.456Z,21.23
2022-11-12T12:03:33.141Z,20.97
2022-11-12T12:06:25.511Z,20.50
2022-11-12T12:09:24.212Z,19.17
2022-11-12T12:12:21.467Z,18.97
2022-11-12T12:15:31.547Z,18.57
2022-11-12T12:18:27.349Z,18.57
2022-11-12T12:21:17.079Z,19.53
2022-11-12T12:24:04.635Z,18.70
2022-11-12T12:26:53.507Z,19.33
2022-11-12T12:29:41.951Z,19.00
2022-11-12T12:32:33.221Z,19.33
2022-11-12T12:35:23.989Z,19.30
2022-11-12T12:38:12.721Z,19.23
2022-11-12T12:41:03.995Z,19.17
2022-11-12T12:43:52.312Z,19.03
2022-11-12T12:46:40.227Z,18.83
2022-11-12T12:49:31.861Z,18.90
2022-11-12T12:52:18.008Z,19.30
2022-11-12T12:55:04.074Z,20.27
2022-11-12T12:57:59.722Z,18.60
2022-11-12T13:00:50.700Z,18.70
2022-11-12T13:03:50.324Z,19.07
2022-11-12T13:06:39.596Z,19.70
2022-11-12T13:09:26.572Z,19.50
2022-11-12T13:12:24.545Z,19.13
2022-11-12T13:15:14.939Z,20.40
2022-11-12T13:18:00.847Z,20.03
2022-11-12T13:21:09.344Z,20.57
2022-11-12T13:24:13.148Z,20.00
2022-11-12T13:27:00.396Z,20.23
2022-11-12T13:29:47.905Z,20.60
2022-11-12T13:32:35.910Z,20.10
2022-11-12T13:35:30.533Z,19.83
2022-11-12T13:38:16.457Z,20.37
2022-11-12T13:41:10.308Z,19.67
2022-11-12T13:43:57.414Z,19.57
2022-11-12T13:46:44.871Z,20.13
2022-11-12T13:49:31.301Z,19.83
2022-11-12T13:52:19.777Z,20.33
2022-11-12T13:55:07.917Z,20.60
2022-11-12T13:57:55.755Z,20.73
2022-11-12T14:00:41.661Z,20.50
2022-11-12T14:03:30.040Z,20.40
2022-11-12T14:06:17.637Z,20.57
2022-11-12T14:09:25.737Z,20.43
2022-11-12T14:12:21.095Z,20.50
2022-11-12T14:15:32.839Z,19.93
2022-11-12T14:18:26.793Z,19.30
2022-11-12T14:21:16.958Z,20.13
2022-11-12T14:24:03.937Z,19.80
2022-11-12T14:26:50.077Z,20.30
2022-11-12T14:29:39.896Z,20.40
2022-11-12T14:32:36.473Z,19.93
2022-11-12T14:35:31.983Z,19.97
2022-11-12T14:38:20.136Z,19.73
2022-11-12T14:41:10.687Z,19.63
2022-11-12T14:44:11.354Z,20.33
2022-11-12T14:46:59.631Z,19.97
2022-11-12T14:49:49.051Z,20.07
2022-11-12T14:52:37.240Z,19.23
2022-11-12T14:55:26.455Z,19.57
2022-11-12T14:58:14.381Z,20.20
2022-11-12T15:01:47.746Z,19.37
2022-11-12T15:04:25.743Z,20.30
2022-11-12T15:07:26.933Z,19.83
2022-11-12T15:10:34.245Z,20.77
2022-11-12T15:13:21.737Z,20.17
2022-11-12T15:16:09.197Z,20.40
2022-11-12T15:19:04.978Z,19.50
2022-11-12T15:21:52.595Z,20.27
2022-11-12T15:24:43.788Z,19.73
2022-11-12T15:27:36.184Z,19.83
2022-11-12T15:30:24.467Z,20.57
2022-11-12T15:33:17.568Z,20.53
2022-11-12T15:36:03.603Z,20.97
2022-11-12T15:38:51.437Z,19.93
2022-11-12T15:41:39.407Z,17.97
2022-11-12T15:44:26.167Z,19.93
2022-11-12T15:47:19.312Z,28.63
2022-11-12T15:50:16.471Z,21.47
2022-11-12T15:53:02.298Z,19.07
2022-11-12T15:55:48.880Z,19.20
2022-11-12T15:58:37.287Z,19.27
2022-11-12T16:01:23.335Z,18.97
2022-11-12T16:04:09.188Z,18.57
2022-11-12T16:06:55.219Z,18.67
2022-11-12T16:09:41.455Z,17.83
2022-11-12T16:12:27.970Z,18.17
2022-11-12T16:15:16.314Z,17.30
2022-11-12T16:18:02.664Z,16.90
2022-11-12T16:20:49.684Z,18.87
2022-11-12T16:23:36.780Z,18.00
2022-11-12T16:26:26.978Z,19.47
2022-11-12T16:29:14.398Z,18.37
2022-11-12T16:32:01.546Z,18.27
2022-11-12T16:34:47.640Z,17.90
2022-11-12T16:37:33.839Z,17.43
2022-11-12T16:40:21.736Z,18.23
2022-11-12T16:43:07.779Z,18.13
2022-11-12T16:45:54.131Z,17.60
2022-11-12T16:48:41.290Z,16.73
2022-11-12T16:51:27.315Z,19.30
2022-11-12T16:54:13.489Z,20.17
2022-11-12T16:56:59.660Z,19.10
2022-11-12T16:59:45.923Z,20.40
2022-11-12T17:02:31.739Z,17.87
2022-11-12T17:05:20.768Z,18.23
2022-11-12T17:08:07.029Z,17.23
2022-11-12T17:10:53.214Z,18.23
2022-11-12T17:13:42.514Z,18.63
2022-11-12T17:16:29.105Z,19.30
2022-11-12T17:19:15.264Z,20.47
2022-11-12T17:22:02.485Z,25.47
2022-11-12T17:24:48.569Z,19.23
2022-11-12T17:27:34.971Z,18.07
2022-11-12T17:30:20.918Z,20.30
2022-11-12T17:33:06.861Z,19.83
2022-11-12T17:35:53.152Z,22.73
2022-11-12T17:38:40.722Z,24.40
2022-11-12T17:41:28.517Z,23.13
2022-11-12T17:44:16.988Z,20.63
2022-11-12T17:47:03.280Z,21.27
2022-11-12T17:49:49.394Z,21.23
2022-11-12T17:52:35.300Z,22.17
2022-11-12T17:55:22.544Z,21.20
2022-11-12T17:58:09.079Z,24.77
2022-11-12T18:00:55.053Z,22.80
2022-11-12T18:03:41.708Z,18.40
2022-11-12T18:06:29.491Z,20.73
2022-11-12T18:09:16.267Z,19.97
2022-11-12T18:12:03.632Z,20.17
2022-11-12T18:14:49.759Z,23.40
2022-11-12T18:17:36.107Z,23.53
2022-11-12T18:20:22.258Z,23.23
2022-11-12T18:23:08.195Z,24.30
2022-11-12T18:25:54.342Z,24.00
2022-11-12T18:28:41.721Z,26.80
2022-11-12T18:31:28.521Z,22.00
2022-11-12T18:34:15.727Z,20.87
2022-11-12T18:37:01.803Z,21.40
2022-11-12T18:39:47.906Z,23.13
2022-11-12T18:42:33.896Z,20.77
2022-11-12T18:45:21.211Z,21.60
2022-11-12T18:48:07.733Z,21.77
2022-11-12T18:50:54.156Z,21.23
2022-11-12T18:53:41.367Z,20.77
2022-11-12T18:56:30.364Z,20.67
2022-11-12T18:59:16.691Z,19.77
2022-11-12T19:02:03.924Z,23.53
2022-11-12T19:04:49.791Z,25.53
2022-11-12T19:07:35.863Z,22.43
2022-11-12T19:10:21.765Z,24.20
2022-11-12T19:13:07.980Z,25.23
2022-11-12T19:15:55.230Z,25.13
2022-11-12T19:18:43.154Z,26.70
2022-11-12T19:21:29.459Z,25.80
2022-11-12T19:24:15.719Z,25.27
2022-11-12T19:27:01.856Z,26.63
2022-11-12T19:29:49.372Z,24.03
2022-11-12T19:32:35.575Z,22.90
2022-11-12T19:35:22.844Z,24.90
2022-11-12T19:38:09.131Z,24.10
2022-11-12T19:40:55.299Z,21.43
2022-11-12T19:43:41.693Z,24.03
2022-11-12T19:46:27.675Z,25.43
2022-11-12T19:49:13.905Z,25.23
2022-11-12T19:52:01.395Z,25.90
2022-11-12T19:54:47.364Z,25.83
2022-11-12T19:57:33.693Z,28.20
2022-11-12T20:00:19.739Z,28.77
2022-11-12T20:03:05.875Z,28.40
2022-11-12T20:05:52.616Z,23.90
2022-11-12T20:08:40.237Z,23.67
2022-11-12T20:11:26.487Z,24.57
2022-11-12T20:14:12.414Z,26.37
2022-11-12T20:16:58.351Z,28.73
2022-11-12T20:19:44.665Z,27.70
2022-11-12T20:22:32.249Z,32.90
2022-11-12T20:25:19.714Z,29.37
2022-11-12T20:28:05.852Z,26.00
2022-11-12T20:30:52.037Z,24.00
2022-11-12T20:33:42.227Z,25.77
2022-11-12T20:36:29.272Z,27.67
2022-11-12T20:39:15.241Z,28.33
2022-11-12T20:42:02.552Z,26.40
2022-11-12T20:44:48.824Z,26.73
2022-11-12T20:47:35.128Z,27.57
2022-11-12T20:50:21.193Z,26.73
2022-11-12T20:53:07.041Z,25.20
2022-11-12T20:55:52.893Z,25.10
2022-11-12T20:58:40.863Z,24.30
2022-11-12T21:01:28.903Z,24.53
2022-11-12T21:04:14.959Z,27.07
2022-11-12T21:07:05.110Z,26.27
2022-11-12T21:09:51.387Z,25.07
2022-11-12T21:12:37.408Z,25.10
2022-11-12T21:15:24.996Z,26.33
2022-11-12T21:18:11.165Z,27.67
2022-11-12T21:21:01.559Z,26.97
2022-11-12T21:23:49.092Z,25.77
2022-11-12T21:26:35.424Z,25.73
2022-11-12T21:29:21.603Z,26.80
2022-11-12T21:32:09.100Z,27.23
2022-11-12T21:34:55.562Z,28.07
2022-11-12T21:37:41.658Z,24.13
2022-11-12T21:40:27.906Z,23.77
2022-11-12T21:43:14.290Z,24.30
2022-11-12T21:46:00.928Z,24.73
2022-11-12T21:48:54.907Z,24.67
2022-11-12T21:51:41.470Z,24.17
2022-11-12T21:54:27.206Z,22.23
2022-11-12T21:57:18.502Z,22.97
2022-11-12T22:00:34.680Z,23.37
2022-11-12T22:03:12.078Z,23.33
2022-11-12T22:05:59.848Z,23.13
2022-11-12T22:08:46.516Z,21.53
2022-11-12T22:11:32.808Z,22.63
2022-11-12T22:14:18.974Z,22.80
2022-11-12T22:17:04.874Z,23.77
2022-11-12T22:19:51.042Z,23.37
2022-11-12T22:22:38.323Z,22.40
2022-11-12T22:25:24.165Z,22.97
2022-11-12T22:28:10.337Z,23.97
2022-11-12T22:30:56.604Z,22.33
2022-11-12T22:33:43.004Z,22.77
2022-11-12T22:36:31.162Z,24.23
2022-11-12T22:39:18.684Z,24.80
2022-11-12T22:42:04.922Z,25.10
2022-11-12T22:44:51.170Z,24.43
2022-11-12T22:47:37.192Z,25.03
2022-11-12T22:50:23.438Z,24.30
2022-11-12T22:53:09.523Z,25.13
2022-11-12T22:56:01.859Z,24.00
2022-11-12T22:58:48.436Z,24.77
2022-11-12T23:01:36.392Z,23.97
2022-11-12T23:04:23.368Z,22.80
2022-11-12T23:07:09.644Z,22.07
2022-11-12T23:09:55.731Z,22.10
2022-11-12T23:12:43.141Z,22.10
2022-11-12T23:15:29.275Z,20.83
2022-11-12T23:18:15.254Z,21.30
2022-11-12T23:21:05.135Z,20.53
2022-11-12T23:23:51.625Z,22.13
2022-11-12T23:26:37.530Z,22.43
2022-11-12T23:29:24.778Z,20.57
2022-11-12T23:32:10.996Z,21.53
2022-11-12T23:34:56.906Z,22.27
2022-11-12T23:37:43.184Z,20.43
2022-11-12T23:40:31.058Z,20.00
2022-11-12T23:43:17.216Z,19.60
2022-11-12T23:46:04.662Z,20.37
2022-11-12T23:48:51.140Z,20.30
2022-11-12T23:51:36.973Z,20.37
2022-11-12T23:54:23.172Z,21.10
2022-11-12T23:57:09.562Z,20.87
2022-11-12T23:59:55.376Z,23.80
